createdAt,value
2019-01-14T00:00:09.649Z,9.50
2019-01-14T00:01:09.587Z,10.30
2019-01-14T00:02:09.575Z,12.20
2019-01-14T00:03:09.583Z,12.00
2019-01-14T00:04:09.555Z,13.70
2019-01-14T00:05:09.539Z,17.00
2019-01-14T00:06:10.235Z,10.80
2019-01-14T00:07:09.519Z,13.00
2019-01-14T00:08:09.503Z,10.70
2019-01-14T00:09:09.509Z,14.00
2019-01-14T00:10:09.483Z,11.80
2019-01-14T00:11:09.477Z,13.50
2019-01-14T00:12:09.500Z,15.00
2019-01-14T00:13:09.451Z,10.70
2019-01-14T00:14:09.457Z,9.00
2019-01-14T00:15:09.431Z,16.80
2019-01-14T00:16:09.419Z,10.20
2019-01-14T00:17:09.406Z,12.40
2019-01-14T00:18:09.409Z,13.20
2019-01-14T00:19:09.386Z,10.70
2019-01-14T00:20:09.386Z,7.50
2019-01-14T00:21:09.371Z,10.10
2019-01-14T00:22:09.350Z,14.00
2019-01-14T00:23:09.342Z,7.70
2019-01-14T00:24:09.342Z,10.30
2019-01-14T00:25:09.312Z,12.40
2019-01-14T00:26:10.825Z,11.60
2019-01-14T00:27:09.292Z,9.60
2019-01-14T00:28:09.287Z,11.30
2019-01-14T00:29:09.271Z,9.60
2019-01-14T00:30:09.291Z,9.10
2019-01-14T00:31:09.251Z,10.80
2019-01-14T00:32:09.248Z,10.50
2019-01-14T00:33:09.225Z,9.60
2019-01-14T00:34:09.212Z,9.50
2019-01-14T00:35:09.205Z,6.90
2019-01-14T00:36:09.207Z,9.50
2019-01-14T00:37:09.211Z,10.30
2019-01-14T00:38:09.169Z,6.60
2019-01-14T00:39:09.160Z,8.40
2019-01-14T00:40:09.146Z,8.70
2019-01-14T00:41:09.190Z,8.30
2019-01-14T00:42:09.166Z,7.30
2019-01-14T00:43:09.135Z,8.90
2019-01-14T00:44:09.100Z,8.40
2019-01-14T00:45:09.089Z,7.10
2019-01-14T00:46:09.077Z,6.30
2019-01-14T00:47:09.068Z,5.50
2019-01-14T00:48:09.111Z,9.00
2019-01-14T00:49:09.077Z,8.40
2019-01-14T00:50:09.038Z,8.80
2019-01-14T00:51:09.024Z,11.60
2019-01-14T00:52:09.009Z,7.60
2019-01-14T00:53:08.998Z,10.50
2019-01-14T00:54:10.633Z,7.50
2019-01-14T00:55:08.992Z,8.30
2019-01-14T00:56:08.971Z,11.30
2019-01-14T00:57:08.958Z,10.60
2019-01-14T00:58:08.944Z,7.90
2019-01-14T00:59:08.933Z,8.30
2019-01-14T01:00:08.967Z,11.60
2019-01-14T01:01:08.911Z,7.90
2019-01-14T01:02:08.901Z,5.80
2019-01-14T01:03:08.888Z,7.90
2019-01-14T01:04:08.879Z,9.60
2019-01-14T01:05:08.867Z,9.40
2019-01-14T01:06:08.931Z,6.90
2019-01-14T01:07:08.849Z,6.90
2019-01-14T01:08:08.831Z,7.30
2019-01-14T01:09:08.819Z,9.90
2019-01-14T01:10:08.813Z,8.80
2019-01-14T01:11:08.796Z,8.70
2019-01-14T01:12:08.859Z,10.10
2019-01-14T01:13:08.790Z,9.30
2019-01-14T01:14:08.764Z,10.20
2019-01-14T01:15:08.756Z,10.70
2019-01-14T01:16:08.742Z,7.40
2019-01-14T01:17:08.733Z,9.50
2019-01-14T01:18:08.779Z,8.40
2019-01-14T01:19:08.710Z,10.50
2019-01-14T01:20:08.702Z,10.60
2019-01-14T01:21:08.684Z,8.20
2019-01-14T01:22:08.674Z,9.60
2019-01-14T01:23:08.694Z,9.20
2019-01-14T01:24:08.698Z,9.50
2019-01-14T01:25:08.645Z,9.30
2019-01-14T01:26:08.634Z,9.90
2019-01-14T01:27:08.620Z,7.50
2019-01-14T01:28:08.612Z,12.30
2019-01-14T01:29:08.610Z,9.10
2019-01-14T01:30:08.625Z,8.10
2019-01-14T01:31:08.579Z,11.40
2019-01-14T01:32:08.560Z,6.80
2019-01-14T01:33:08.553Z,10.40
2019-01-14T01:34:08.538Z,7.00
2019-01-14T01:35:08.559Z,8.30
2019-01-14T01:36:08.539Z,9.70
2019-01-14T01:37:08.506Z,9.20
2019-01-14T01:38:08.496Z,6.90
2019-01-14T01:39:08.487Z,9.90
2019-01-14T01:40:08.474Z,7.30
2019-01-14T01:41:08.476Z,6.60
2019-01-14T01:42:08.496Z,10.10
2019-01-14T01:43:08.440Z,6.30
2019-01-14T01:44:08.427Z,8.10
2019-01-14T01:45:08.420Z,7.70
2019-01-14T01:46:08.425Z,6.40
2019-01-14T01:47:08.395Z,5.40
2019-01-14T01:48:08.414Z,8.60
2019-01-14T01:49:08.373Z,5.90
2019-01-14T01:50:08.363Z,5.50
2019-01-14T01:51:08.350Z,6.50
2019-01-14T01:52:08.406Z,7.80
2019-01-14T01:53:08.327Z,6.00
2019-01-14T01:54:08.337Z,6.00
2019-01-14T01:55:08.304Z,6.30
2019-01-14T01:56:08.290Z,7.60
2019-01-14T01:57:08.287Z,7.40
2019-01-14T01:58:08.287Z,8.30
2019-01-14T01:59:08.257Z,9.90
2019-01-14T02:00:08.284Z,7.30
2019-01-14T02:01:08.237Z,7.90
2019-01-14T02:02:08.226Z,8.90
2019-01-14T02:03:08.239Z,5.90
2019-01-14T02:04:08.204Z,7.70
2019-01-14T02:05:08.192Z,4.00
2019-01-14T02:06:08.204Z,4.60
2019-01-14T02:07:08.168Z,5.70
2019-01-14T02:08:08.162Z,6.00
2019-01-14T02:09:08.167Z,5.00
2019-01-14T02:10:08.140Z,7.60
2019-01-14T02:11:08.122Z,6.30
2019-01-14T02:12:08.131Z,5.50
2019-01-14T02:13:08.100Z,9.20
2019-01-14T02:14:08.091Z,6.60
2019-01-14T02:15:08.100Z,6.90
2019-01-14T02:16:08.068Z,5.20
2019-01-14T02:17:08.059Z,5.90
2019-01-14T02:18:08.074Z,9.20
2019-01-14T02:19:08.036Z,5.60
2019-01-14T02:20:08.024Z,7.10
2019-01-14T02:21:08.034Z,6.60
2019-01-14T02:22:08.003Z,7.60
2019-01-14T02:23:07.993Z,4.40
2019-01-14T02:24:08.001Z,5.70
2019-01-14T02:25:07.973Z,12.00
2019-01-14T02:26:07.957Z,5.80
2019-01-14T02:27:07.962Z,6.30
2019-01-14T02:28:07.953Z,7.20
2019-01-14T02:29:07.929Z,7.70
2019-01-14T02:30:07.933Z,6.30
2019-01-14T02:31:07.908Z,8.30
2019-01-14T02:32:07.890Z,8.60
2019-01-14T02:33:07.876Z,8.30
2019-01-14T02:34:07.883Z,10.10
2019-01-14T02:35:07.856Z,7.90
2019-01-14T02:36:07.884Z,7.10
2019-01-14T02:37:07.836Z,7.60
2019-01-14T02:38:07.822Z,6.90
2019-01-14T02:39:07.828Z,8.10
2019-01-14T02:40:07.805Z,6.10
2019-01-14T02:41:07.787Z,9.80
2019-01-14T02:42:07.794Z,11.20
2019-01-14T02:43:07.781Z,9.20
2019-01-14T02:44:07.777Z,6.40
2019-01-14T02:45:07.761Z,5.50
2019-01-14T02:46:07.733Z,7.80
2019-01-14T02:47:07.725Z,11.10
2019-01-14T02:48:07.739Z,9.30
2019-01-14T02:49:07.697Z,8.70
2019-01-14T02:50:07.715Z,10.40
2019-01-14T02:51:07.675Z,9.40
2019-01-14T02:52:07.665Z,7.80
2019-01-14T02:53:07.662Z,7.60
2019-01-14T02:54:07.657Z,8.30
2019-01-14T02:55:07.631Z,10.70
2019-01-14T02:56:07.637Z,10.60
2019-01-14T02:57:15.212Z,8.90
2019-01-14T02:58:07.627Z,9.10
2019-01-14T02:59:07.643Z,10.30
2019-01-14T03:00:07.582Z,10.20
2019-01-14T03:01:07.576Z,11.10
2019-01-14T03:02:07.563Z,10.70
2019-01-14T03:03:07.566Z,10.70
2019-01-14T03:04:07.538Z,14.80
2019-01-14T03:05:07.529Z,12.00
2019-01-14T03:06:07.516Z,11.50
2019-01-14T03:07:07.526Z,13.70
2019-01-14T03:08:07.507Z,12.20
2019-01-14T03:09:07.483Z,8.60
2019-01-14T03:10:07.487Z,11.50
2019-01-14T03:11:07.456Z,12.90
2019-01-14T03:12:07.444Z,12.70
2019-01-14T03:13:07.478Z,11.90
2019-01-14T03:14:07.427Z,15.90
2019-01-14T03:15:07.413Z,12.30
2019-01-14T03:16:07.421Z,15.10
2019-01-14T03:17:07.396Z,16.50
2019-01-14T03:18:07.374Z,8.90
2019-01-14T03:19:07.408Z,12.80
2019-01-14T03:20:07.358Z,11.30
2019-01-14T03:21:07.339Z,14.70
2019-01-14T03:22:07.342Z,14.60
2019-01-14T03:23:07.318Z,19.30
2019-01-14T03:24:07.308Z,15.90
2019-01-14T03:25:07.323Z,16.70
2019-01-14T03:26:07.288Z,12.50
2019-01-14T03:27:07.278Z,13.10
2019-01-14T03:28:07.265Z,13.00
2019-01-14T03:29:07.254Z,12.10
2019-01-14T03:30:07.266Z,8.30
2019-01-14T03:31:07.230Z,13.70
2019-01-14T03:32:07.223Z,11.70
2019-01-14T03:33:07.234Z,15.90
2019-01-14T03:34:07.219Z,21.10
2019-01-14T03:35:07.183Z,14.70
2019-01-14T03:36:07.190Z,15.00
2019-01-14T03:37:07.161Z,15.90
2019-01-14T03:38:07.157Z,12.50
2019-01-14T03:39:07.151Z,14.40
2019-01-14T03:40:07.130Z,14.80
2019-01-14T03:41:07.119Z,17.90
2019-01-14T03:42:07.156Z,17.70
2019-01-14T03:43:07.096Z,16.00
2019-01-14T03:44:07.088Z,15.90
2019-01-14T03:45:07.079Z,18.30
2019-01-14T03:46:07.072Z,12.00
2019-01-14T03:47:07.051Z,15.50
2019-01-14T03:48:07.053Z,14.60
2019-01-14T03:49:07.028Z,14.30
2019-01-14T03:50:07.016Z,15.60
2019-01-14T03:51:07.008Z,17.40
2019-01-14T03:52:07.000Z,17.60
2019-01-14T03:53:07.016Z,16.80
2019-01-14T03:54:06.972Z,21.10
2019-01-14T03:55:06.962Z,15.40
2019-01-14T03:56:06.951Z,18.80
2019-01-14T03:57:07.063Z,14.80
2019-01-14T03:58:06.929Z,15.20
2019-01-14T03:59:06.936Z,23.40
2019-01-14T04:00:06.922Z,20.60
2019-01-14T04:01:06.894Z,13.70
2019-01-14T04:02:06.882Z,14.40
2019-01-14T04:03:06.869Z,13.50
2019-01-14T04:04:06.860Z,19.40
2019-01-14T04:05:06.872Z,17.10
2019-01-14T04:06:06.842Z,17.50
2019-01-14T04:07:13.566Z,17.20
2019-01-14T04:08:07.810Z,17.20
2019-01-14T04:09:06.806Z,14.50
2019-01-14T04:10:06.811Z,20.80
2019-01-14T04:11:06.780Z,16.60
2019-01-14T04:12:06.791Z,21.60
2019-01-14T04:13:06.759Z,19.40
2019-01-14T04:14:06.788Z,20.60
2019-01-14T04:15:06.735Z,18.10
2019-01-14T04:16:06.738Z,17.70
2019-01-14T04:17:06.712Z,22.20
2019-01-14T04:18:06.706Z,21.00
2019-01-14T04:19:06.692Z,19.50
2019-01-14T04:20:06.679Z,17.50
2019-01-14T04:21:06.669Z,12.90
2019-01-14T04:22:06.673Z,20.10
2019-01-14T04:23:06.645Z,18.30
2019-01-14T04:24:06.685Z,16.90
2019-01-14T04:25:06.623Z,16.00
2019-01-14T04:26:06.619Z,19.30
2019-01-14T04:27:06.598Z,15.60
2019-01-14T04:28:06.623Z,25.00
2019-01-14T04:29:06.588Z,17.80
2019-01-14T04:30:06.579Z,17.10
2019-01-14T04:31:06.555Z,18.30
2019-01-14T04:32:06.546Z,18.80
2019-01-14T04:33:06.534Z,17.20
2019-01-14T04:34:06.538Z,14.50
2019-01-14T04:35:06.511Z,19.20
2019-01-14T04:36:06.500Z,22.00
2019-01-14T04:37:06.488Z,18.50
2019-01-14T04:38:06.476Z,18.40
2019-01-14T04:39:06.491Z,20.80
2019-01-14T04:40:06.457Z,19.80
2019-01-14T04:41:06.455Z,20.40
2019-01-14T04:42:06.440Z,17.50
2019-01-14T04:43:06.433Z,16.70
2019-01-14T04:44:06.416Z,20.90
2019-01-14T04:45:06.410Z,18.70
2019-01-14T04:46:06.402Z,16.30
2019-01-14T04:47:06.377Z,20.90
2019-01-14T04:48:06.370Z,21.60
2019-01-14T04:49:06.362Z,19.30
2019-01-14T04:50:06.349Z,19.70
2019-01-14T04:51:06.331Z,18.50
2019-01-14T04:52:06.335Z,23.90
2019-01-14T04:53:06.310Z,16.20
2019-01-14T04:54:06.297Z,15.60
2019-01-14T04:55:06.295Z,18.80
2019-01-14T04:56:06.293Z,19.60
2019-01-14T04:57:06.277Z,19.80
2019-01-14T04:58:06.304Z,21.20
2019-01-14T04:59:06.242Z,21.10
2019-01-14T05:00:06.236Z,20.60
2019-01-14T05:01:06.223Z,20.30
2019-01-14T05:02:06.212Z,17.20
2019-01-14T05:03:06.213Z,21.00
2019-01-14T05:04:06.199Z,17.60
2019-01-14T05:05:06.191Z,19.00
2019-01-14T05:06:06.163Z,21.50
2019-01-14T05:07:06.155Z,22.20
2019-01-14T05:08:06.159Z,19.90
2019-01-14T05:09:06.132Z,21.50
2019-01-14T05:10:06.116Z,23.20
2019-01-14T05:11:06.104Z,20.70
2019-01-14T05:12:06.105Z,19.10
2019-01-14T05:13:06.084Z,15.20
2019-01-14T05:14:06.082Z,24.80
2019-01-14T05:15:06.073Z,17.50
2019-01-14T05:16:06.081Z,14.50
2019-01-14T05:17:06.039Z,22.70
2019-01-14T05:18:06.025Z,16.90
2019-01-14T05:19:06.037Z,16.30
2019-01-14T05:20:06.022Z,20.70
2019-01-14T05:21:05.993Z,17.70
2019-01-14T05:22:05.989Z,15.20
2019-01-14T05:23:05.988Z,21.80
2019-01-14T05:24:05.964Z,21.50
2019-01-14T05:25:05.975Z,21.00
2019-01-14T05:26:05.965Z,18.40
2019-01-14T05:27:05.926Z,15.30
2019-01-14T05:28:05.919Z,17.10
2019-01-14T05:29:05.925Z,17.00
2019-01-14T05:30:05.913Z,18.20
2019-01-14T05:31:05.910Z,17.10
2019-01-14T05:32:05.885Z,18.80
2019-01-14T05:33:05.877Z,18.70
2019-01-14T05:34:05.849Z,19.30
2019-01-14T05:35:05.842Z,19.30
2019-01-14T05:36:05.848Z,21.20
2019-01-14T05:37:05.818Z,14.30
2019-01-14T05:38:05.804Z,16.90
2019-01-14T05:39:05.794Z,15.40
2019-01-14T05:40:05.783Z,19.50
2019-01-14T05:41:05.775Z,18.40
2019-01-14T05:42:05.776Z,16.50
2019-01-14T05:43:05.747Z,20.80
2019-01-14T05:44:05.746Z,17.00
2019-01-14T05:45:05.731Z,14.70
2019-01-14T05:46:05.715Z,15.40
2019-01-14T05:47:05.716Z,20.10
2019-01-14T05:48:05.712Z,21.30
2019-01-14T05:49:05.712Z,20.80
2019-01-14T05:50:05.680Z,19.90
2019-01-14T05:51:05.678Z,16.60
2019-01-14T05:52:05.647Z,18.20
2019-01-14T05:53:05.641Z,15.10
2019-01-14T05:54:05.643Z,19.80
2019-01-14T05:55:05.615Z,18.00
2019-01-14T05:56:05.604Z,14.50
2019-01-14T05:57:05.590Z,15.00
2019-01-14T05:58:05.582Z,14.30
2019-01-14T05:59:05.570Z,16.30
2019-01-14T06:00:05.574Z,14.30
2019-01-14T06:01:05.544Z,17.40
2019-01-14T06:02:05.534Z,12.80
2019-01-14T06:03:05.521Z,20.00
2019-01-14T06:04:05.547Z,18.80
2019-01-14T06:05:05.504Z,15.60
2019-01-14T06:06:05.504Z,16.60
2019-01-14T06:07:05.478Z,19.10
2019-01-14T06:08:05.466Z,19.30
2019-01-14T06:09:05.456Z,16.10
2019-01-14T06:10:05.460Z,17.90
2019-01-14T06:11:05.467Z,17.00
2019-01-14T06:12:05.442Z,21.80
2019-01-14T06:13:05.414Z,24.80
2019-01-14T06:14:05.401Z,25.00
2019-01-14T06:15:05.395Z,20.40
2019-01-14T06:16:05.396Z,16.50
2019-01-14T06:17:05.370Z,22.80
2019-01-14T06:18:05.360Z,14.00
2019-01-14T06:19:05.356Z,17.70
2019-01-14T06:20:05.333Z,21.10
2019-01-14T06:21:05.335Z,15.90
2019-01-14T06:22:05.331Z,18.30
2019-01-14T06:23:05.315Z,22.80
2019-01-14T06:24:05.292Z,17.30
2019-01-14T06:25:05.306Z,20.50
2019-01-14T06:26:05.287Z,18.30
2019-01-14T06:27:05.278Z,22.50
2019-01-14T06:28:05.301Z,14.30
2019-01-14T06:29:05.239Z,18.30
2019-01-14T06:30:05.223Z,18.60
2019-01-14T06:31:05.209Z,17.90
2019-01-14T06:32:05.220Z,20.30
2019-01-14T06:33:05.190Z,17.30
2019-01-14T06:34:05.222Z,18.40
2019-01-14T06:35:05.165Z,20.00
2019-01-14T06:36:05.155Z,17.80
2019-01-14T06:37:05.144Z,20.00
2019-01-14T06:38:05.136Z,17.40
2019-01-14T06:39:05.120Z,19.90
2019-01-14T06:40:05.144Z,19.60
2019-01-14T06:41:05.096Z,15.70
2019-01-14T06:42:07.499Z,16.00
2019-01-14T06:43:05.084Z,16.70
2019-01-14T06:44:05.079Z,18.10
2019-01-14T06:45:05.085Z,18.70
2019-01-14T06:46:05.066Z,18.90
2019-01-14T06:47:05.037Z,16.40
2019-01-14T06:48:05.034Z,18.30
2019-01-14T06:49:05.032Z,21.20
2019-01-14T06:50:05.030Z,24.90
2019-01-14T06:51:05.021Z,16.40
2019-01-14T06:52:05.002Z,15.70
2019-01-14T06:53:04.979Z,20.10
2019-01-14T06:54:04.975Z,16.60
2019-01-14T06:55:04.961Z,17.90
2019-01-14T06:56:04.948Z,16.90
2019-01-14T06:57:04.954Z,17.90
2019-01-14T06:58:04.927Z,17.30
2019-01-14T06:59:04.896Z,17.70
2019-01-14T07:00:04.885Z,18.70
2019-01-14T07:01:04.903Z,18.50
2019-01-14T07:02:04.911Z,14.50
2019-01-14T07:03:04.848Z,17.60
2019-01-14T07:04:04.862Z,17.90
2019-01-14T07:05:04.842Z,19.10
2019-01-14T07:06:04.839Z,18.70
2019-01-14T07:07:04.827Z,18.10
2019-01-14T07:08:04.826Z,20.90
2019-01-14T07:09:04.801Z,15.90
2019-01-14T07:10:04.799Z,21.20
2019-01-14T07:11:04.771Z,24.20
2019-01-14T07:12:04.774Z,16.20
2019-01-14T07:13:04.771Z,20.20
2019-01-14T07:14:04.748Z,20.20
2019-01-14T07:15:04.735Z,16.50
2019-01-14T07:16:04.719Z,21.00
2019-01-14T07:17:04.698Z,17.50
2019-01-14T07:18:04.730Z,17.10
2019-01-14T07:19:04.699Z,13.20
2019-01-14T07:20:04.686Z,22.60
2019-01-14T07:21:04.687Z,20.80
2019-01-14T07:22:04.646Z,22.40
2019-01-14T07:23:04.644Z,25.10
2019-01-14T07:24:04.652Z,20.50
2019-01-14T07:25:04.632Z,18.50
2019-01-14T07:26:04.629Z,21.00
2019-01-14T07:27:04.617Z,18.00
2019-01-14T07:28:04.592Z,12.50
2019-01-14T07:29:04.835Z,15.80
2019-01-14T07:30:04.577Z,18.20
2019-01-14T07:31:04.561Z,17.90
2019-01-14T07:32:04.529Z,18.20
2019-01-14T07:33:04.521Z,14.90
2019-01-14T07:34:04.525Z,10.40
2019-01-14T07:35:04.529Z,16.40
2019-01-14T07:36:04.526Z,11.30
2019-01-14T07:37:04.484Z,11.00
2019-01-14T07:38:06.848Z,12.80
2019-01-14T07:39:04.465Z,9.10
2019-01-14T07:40:05.351Z,10.20
2019-01-14T07:41:04.460Z,8.80
2019-01-14T07:42:04.457Z,11.40
2019-01-14T07:43:04.419Z,8.30
2019-01-14T07:44:04.402Z,7.90
2019-01-14T07:45:04.389Z,8.20
2019-01-14T07:46:04.395Z,7.30
2019-01-14T07:47:04.397Z,8.70
2019-01-14T07:48:04.374Z,7.30
2019-01-14T07:49:04.362Z,10.30
2019-01-14T07:50:04.333Z,8.00
2019-01-14T07:51:04.330Z,9.80
2019-01-14T07:52:04.306Z,11.70
2019-01-14T07:53:04.334Z,8.50
2019-01-14T07:54:04.298Z,12.80
2019-01-14T07:55:04.291Z,11.30
2019-01-14T07:56:04.260Z,12.90
2019-01-14T07:57:04.262Z,7.80
2019-01-14T07:58:04.271Z,6.70
2019-01-14T07:59:04.254Z,10.90
2019-01-14T08:00:04.246Z,6.30
2019-01-14T08:01:04.225Z,5.70
2019-01-14T08:02:04.215Z,8.00
2019-01-14T08:03:04.194Z,11.50
2019-01-14T08:04:04.206Z,12.30
2019-01-14T08:05:04.159Z,12.80
2019-01-14T08:06:04.163Z,12.20
2019-01-14T08:07:04.139Z,11.10
2019-01-14T08:08:04.127Z,9.40
2019-01-14T08:09:04.131Z,13.50
2019-01-14T08:10:04.102Z,12.70
2019-01-14T08:11:04.121Z,14.80
2019-01-14T08:12:04.124Z,13.00
2019-01-14T08:13:04.070Z,13.10
2019-01-14T08:14:04.062Z,16.20
2019-01-14T08:15:04.061Z,11.90
2019-01-14T08:16:04.038Z,12.20
2019-01-14T08:17:04.025Z,12.50
2019-01-14T08:18:04.044Z,10.80
2019-01-14T08:19:04.004Z,14.30
2019-01-14T08:20:04.028Z,10.90
2019-01-14T08:21:03.982Z,10.90
2019-01-14T08:22:04.002Z,10.90
2019-01-14T08:23:03.970Z,9.20
2019-01-14T08:24:03.957Z,11.40
2019-01-14T08:25:03.950Z,9.10
2019-01-14T08:26:03.929Z,5.10
2019-01-14T08:27:03.913Z,8.50
2019-01-14T08:28:03.931Z,7.90
2019-01-14T08:29:03.891Z,7.80
2019-01-14T08:30:03.884Z,6.30
2019-01-14T08:31:03.893Z,6.70
2019-01-14T08:32:03.871Z,6.40
2019-01-14T08:33:03.847Z,5.60
2019-01-14T08:34:03.848Z,8.40
2019-01-14T08:35:03.825Z,9.80
2019-01-14T08:36:03.813Z,9.00
2019-01-14T08:37:03.833Z,8.00
2019-01-14T08:38:03.792Z,9.10
2019-01-14T08:39:03.797Z,7.30
2019-01-14T08:40:03.771Z,6.70
2019-01-14T08:41:03.766Z,8.60
2019-01-14T08:42:03.747Z,7.40
2019-01-14T08:43:03.755Z,7.60
2019-01-14T08:44:03.744Z,6.70
2019-01-14T08:45:03.724Z,6.30
2019-01-14T08:46:03.702Z,9.50
2019-01-14T08:47:03.691Z,6.20
2019-01-14T08:48:03.680Z,7.60
2019-01-14T08:49:03.684Z,5.50
2019-01-14T08:50:03.674Z,5.00
2019-01-14T08:51:03.645Z,8.50
2019-01-14T08:52:03.638Z,7.30
2019-01-14T08:53:03.624Z,6.90
2019-01-14T08:54:03.616Z,7.60
2019-01-14T08:55:03.610Z,9.20
2019-01-14T08:56:03.606Z,7.80
2019-01-14T08:57:03.581Z,6.90
2019-01-14T08:58:03.567Z,7.00
2019-01-14T08:59:03.558Z,6.10
2019-01-14T09:00:03.548Z,7.40
2019-01-14T09:01:03.569Z,5.50
2019-01-14T09:02:03.521Z,8.50
2019-01-14T09:03:03.513Z,6.20
2019-01-14T09:04:03.503Z,7.60
2019-01-14T09:05:03.488Z,7.40
2019-01-14T09:06:03.478Z,7.00
2019-01-14T09:07:03.498Z,8.40
2019-01-14T09:08:03.455Z,9.50
2019-01-14T09:09:03.445Z,6.80
2019-01-14T09:10:03.432Z,6.10
2019-01-14T09:11:03.422Z,4.40
2019-01-14T09:12:03.410Z,8.90
2019-01-14T09:13:03.425Z,6.60
2019-01-14T09:14:03.389Z,7.90
2019-01-14T09:15:03.406Z,5.70
2019-01-14T09:16:03.383Z,8.80
2019-01-14T09:17:03.372Z,7.00
2019-01-14T09:18:03.345Z,6.10
2019-01-14T09:19:03.353Z,6.70
2019-01-14T09:20:03.341Z,8.50
2019-01-14T09:21:03.334Z,5.40
2019-01-14T09:22:03.301Z,6.70
2019-01-14T09:23:03.307Z,6.70
2019-01-14T09:24:03.277Z,7.40
2019-01-14T09:25:03.284Z,8.30
2019-01-14T09:26:03.256Z,4.70
2019-01-14T09:27:03.244Z,7.70
2019-01-14T09:28:03.236Z,5.30
2019-01-14T09:29:03.233Z,6.50
2019-01-14T09:30:03.227Z,4.10
2019-01-14T09:31:03.224Z,3.80
2019-01-14T09:32:03.190Z,4.40
2019-01-14T09:33:03.177Z,5.70
2019-01-14T09:34:03.165Z,4.30
2019-01-14T09:35:03.155Z,6.80
2019-01-14T09:36:03.160Z,6.90
2019-01-14T09:37:03.143Z,5.00
2019-01-14T09:38:03.132Z,5.80
2019-01-14T09:39:03.124Z,6.30
2019-01-14T09:40:03.098Z,4.00
2019-01-14T09:41:03.993Z,6.50
2019-01-14T09:42:03.099Z,7.30
2019-01-14T09:43:03.064Z,7.20
2019-01-14T09:44:03.053Z,3.80
2019-01-14T09:45:03.054Z,6.90
2019-01-14T09:46:03.031Z,6.10
2019-01-14T09:47:03.021Z,6.40
2019-01-14T09:48:03.021Z,6.30
2019-01-14T09:49:02.997Z,5.80
2019-01-14T09:50:02.989Z,6.30
2019-01-14T09:51:02.991Z,6.80
2019-01-14T09:52:02.975Z,8.90
2019-01-14T09:53:02.990Z,6.20
2019-01-14T09:54:02.965Z,5.00
2019-01-14T09:55:05.728Z,7.30
2019-01-14T09:56:02.947Z,10.70
2019-01-14T09:57:02.917Z,21.00
2019-01-14T09:58:02.911Z,10.20
2019-01-14T09:59:02.887Z,8.30
2019-01-14T10:00:02.873Z,8.80
2019-01-14T10:01:02.865Z,6.70
2019-01-14T10:02:02.878Z,6.00
2019-01-14T10:03:02.852Z,8.60
2019-01-14T10:04:02.842Z,8.20
2019-01-14T10:05:02.818Z,9.80
2019-01-14T10:06:02.819Z,9.80
2019-01-14T10:07:02.795Z,10.20
2019-01-14T10:08:02.827Z,10.80
2019-01-14T10:09:03.897Z,14.60
2019-01-14T10:10:02.760Z,18.70
2019-01-14T10:11:02.774Z,20.70
2019-01-14T10:12:02.760Z,16.60
2019-01-14T10:13:02.727Z,12.90
2019-01-14T10:14:02.740Z,12.00
2019-01-14T10:15:02.714Z,11.20
2019-01-14T10:16:02.695Z,6.70
2019-01-14T10:17:02.709Z,5.70
2019-01-14T10:18:02.673Z,7.60
2019-01-14T10:19:02.659Z,7.00
2019-01-14T10:20:02.648Z,7.00
2019-01-14T10:21:02.646Z,10.10
2019-01-14T10:22:02.628Z,6.30
2019-01-14T10:23:02.630Z,7.00
2019-01-14T10:24:02.605Z,5.70
2019-01-14T10:25:02.607Z,7.50
2019-01-14T10:26:02.589Z,8.50
2019-01-14T10:27:02.625Z,9.20
2019-01-14T10:28:02.558Z,6.80
2019-01-14T10:29:02.548Z,9.70
2019-01-14T10:30:02.538Z,9.10
2019-01-14T10:31:02.527Z,9.20
2019-01-14T10:32:02.514Z,6.80
2019-01-14T10:33:02.525Z,8.80
2019-01-14T10:34:02.493Z,7.40
2019-01-14T10:35:02.503Z,8.60
2019-01-14T10:36:02.470Z,7.40
2019-01-14T10:37:02.459Z,11.40
2019-01-14T10:38:02.462Z,8.00
2019-01-14T10:39:02.447Z,12.60
2019-01-14T10:40:02.427Z,9.90
2019-01-14T10:41:02.415Z,8.00
2019-01-14T10:42:05.014Z,8.90
2019-01-14T10:43:02.395Z,7.30
2019-01-14T10:44:02.407Z,9.10
2019-01-14T10:45:02.386Z,12.70
2019-01-14T10:46:02.374Z,8.00
2019-01-14T10:47:02.365Z,5.90
2019-01-14T10:48:02.361Z,11.00
2019-01-14T10:49:06.601Z,11.40
2019-01-14T10:50:02.327Z,8.70
2019-01-14T10:51:02.312Z,11.10
2019-01-14T10:52:02.321Z,6.60
2019-01-14T10:53:02.294Z,10.30
2019-01-14T10:54:02.271Z,12.60
2019-01-14T10:55:02.274Z,11.60
2019-01-14T10:56:02.247Z,10.80
2019-01-14T10:57:02.277Z,7.60
2019-01-14T10:58:02.233Z,8.80
2019-01-14T10:59:02.213Z,9.70
2019-01-14T11:00:02.202Z,11.00
2019-01-14T11:01:02.204Z,7.20
2019-01-14T11:02:02.185Z,8.20
2019-01-14T11:03:02.217Z,13.50
2019-01-14T11:04:02.158Z,9.40
2019-01-14T11:05:02.148Z,10.00
2019-01-14T11:06:02.184Z,8.60
2019-01-14T11:07:02.125Z,6.00
2019-01-14T11:08:02.113Z,7.10
2019-01-14T11:09:06.073Z,7.90
2019-01-14T11:10:02.095Z,6.20
2019-01-14T11:11:02.101Z,4.70
2019-01-14T11:12:02.107Z,6.30
2019-01-14T11:13:02.059Z,6.60
2019-01-14T11:14:02.060Z,5.30
2019-01-14T11:15:03.141Z,6.80
2019-01-14T11:16:02.025Z,7.30
2019-01-14T11:17:02.014Z,6.40
2019-01-14T11:18:02.016Z,5.10
2019-01-14T11:19:01.991Z,4.60
2019-01-14T11:20:01.993Z,4.90
2019-01-14T11:21:01.983Z,3.30
2019-01-14T11:22:01.978Z,4.30
2019-01-14T11:23:01.949Z,4.30
2019-01-14T11:24:01.964Z,6.30
2019-01-14T11:25:02.542Z,4.10
2019-01-14T11:26:01.930Z,3.70
2019-01-14T11:27:01.966Z,5.40
2019-01-14T11:28:01.917Z,4.60
2019-01-14T11:29:01.881Z,5.60
2019-01-14T11:30:01.897Z,5.00
2019-01-14T11:31:01.882Z,4.70
2019-01-14T11:32:01.871Z,5.80
2019-01-14T11:33:01.845Z,6.40
2019-01-14T11:34:01.830Z,7.50
2019-01-14T11:35:01.825Z,6.10
2019-01-14T11:36:01.842Z,4.60
2019-01-14T11:37:01.808Z,6.90
2019-01-14T11:38:01.810Z,5.30
2019-01-14T11:39:05.182Z,5.20
2019-01-14T11:40:01.761Z,5.00
2019-01-14T11:41:01.785Z,6.60
2019-01-14T11:42:01.765Z,3.80
2019-01-14T11:43:01.743Z,6.50
2019-01-14T11:44:01.731Z,5.70
2019-01-14T11:45:01.725Z,8.10
2019-01-14T11:46:01.708Z,5.50
2019-01-14T11:47:01.710Z,6.80
2019-01-14T11:48:01.676Z,6.40
2019-01-14T11:49:01.691Z,4.10
2019-01-14T11:50:01.666Z,5.10
2019-01-14T11:51:01.682Z,4.60
2019-01-14T11:52:01.685Z,5.70
2019-01-14T11:53:01.653Z,6.90
2019-01-14T11:54:01.604Z,7.30
2019-01-14T11:55:01.595Z,6.30
2019-01-14T11:56:01.654Z,7.90
2019-01-14T11:57:01.616Z,5.00
2019-01-14T11:58:01.715Z,6.20
2019-01-14T11:59:01.587Z,6.60
2019-01-14T12:00:01.537Z,8.50
2019-01-14T12:01:01.547Z,6.60
2019-01-14T12:02:01.512Z,6.20
2019-01-14T12:03:01.499Z,7.70
2019-01-14T12:04:01.540Z,7.20
2019-01-14T12:05:01.492Z,5.00
2019-01-14T12:06:01.465Z,5.80
2019-01-14T12:07:01.458Z,9.00
2019-01-14T12:08:01.463Z,5.70
2019-01-14T12:09:01.457Z,7.00
2019-01-14T12:10:01.423Z,6.60
2019-01-14T12:11:01.427Z,7.40
2019-01-14T12:12:01.399Z,10.40
2019-01-14T12:13:01.388Z,5.20
2019-01-14T12:14:01.379Z,3.60
2019-01-14T12:15:01.400Z,8.10
2019-01-14T12:16:01.353Z,8.00
2019-01-14T12:17:01.357Z,8.70
2019-01-14T12:18:01.334Z,6.20
2019-01-14T12:19:01.320Z,8.50
2019-01-14T12:20:01.314Z,7.20
2019-01-14T12:21:01.314Z,8.70
2019-01-14T12:22:01.285Z,6.60
2019-01-14T12:23:01.287Z,8.40
2019-01-14T12:24:01.263Z,12.50
2019-01-14T12:25:01.253Z,8.80
2019-01-14T12:26:01.242Z,10.20
2019-01-14T12:27:01.248Z,8.60
2019-01-14T12:28:01.232Z,8.30
2019-01-14T12:29:01.207Z,8.70
2019-01-14T12:30:01.195Z,6.70
2019-01-14T12:31:01.184Z,5.90
2019-01-14T12:32:01.174Z,9.90
2019-01-14T12:33:01.193Z,10.80
2019-01-14T12:34:01.150Z,9.00
2019-01-14T12:35:01.143Z,8.30
2019-01-14T12:36:01.143Z,11.00
2019-01-14T12:37:01.119Z,9.20
2019-01-14T12:38:01.106Z,9.80
2019-01-14T12:39:01.102Z,9.10
2019-01-14T12:40:01.102Z,12.50
2019-01-14T12:41:01.094Z,7.00
2019-01-14T12:42:01.061Z,8.30
2019-01-14T12:43:01.055Z,8.80
2019-01-14T12:44:01.042Z,9.90
2019-01-14T12:45:01.030Z,9.70
2019-01-14T12:46:01.028Z,9.50
2019-01-14T12:47:01.035Z,10.20
2019-01-14T12:48:00.994Z,10.10
2019-01-14T12:49:00.983Z,8.70
2019-01-14T12:50:00.977Z,6.80
2019-01-14T12:51:00.960Z,8.70
2019-01-14T12:52:00.992Z,8.00
2019-01-14T12:53:00.952Z,7.20
2019-01-14T12:54:00.930Z,9.10
2019-01-14T12:55:00.918Z,6.60
2019-01-14T12:56:00.906Z,6.40
2019-01-14T12:57:00.899Z,8.40
2019-01-14T12:58:00.915Z,6.50
2019-01-14T12:59:00.877Z,6.10
2019-01-14T13:00:00.861Z,3.70
2019-01-14T13:01:00.849Z,6.10
2019-01-14T13:02:00.838Z,8.00
2019-01-14T13:03:00.827Z,8.60
2019-01-14T13:04:00.834Z,7.30
2019-01-14T13:05:00.874Z,8.10